sensor_id;sensor_type;location;lat;lon;timestamp;P1;P2;P0
49914;PMS5003;35806;47.958;13.158;2023-05-02T08:45:01;16;16;
49914;PMS5003;35806;47.958;13.158;2023-05-02T08:47:29;13;13;
49914;PMS5003;35806;47.958;13.158;2023-05-02T08:49:57;14;13;
49914;PMS5003;35806;47.958;13.158;2023-05-02T08:52:26;10;10;
49914;PMS5003;35806;47.958;13.158;2023-05-02T08:54:54;14;14;
49914;PMS5003;35806;47.958;13.158;2023-05-02T08:57:22;13;13;
49914;PMS5003;35806;47.958;13.158;2023-05-02T08:59:49;15;13;
49914;PMS5003;35806;47.958;13.158;2023-05-02T09:02:19;13;11;
49914;PMS5003;35806;47.958;13.158;2023-05-02T09:05:05;11;11;
49914;PMS5003;35806;47.958;13.158;2023-05-02T09:07:41;15;14;
49914;PMS5003;35806;47.958;13.158;2023-05-02T09:10:10;15;15;
49914;PMS5003;35806;47.958;13.158;2023-05-02T09:12:38;14;14;
49914;PMS5003;35806;47.958;13.158;2023-05-02T09:15:07;12;12;
49914;PMS5003;35806;47.958;13.158;2023-05-02T09:17:38;15;14;
49914;PMS5003;35806;47.958;13.158;2023-05-02T09:20:09;11;11;
49914;PMS5003;35806;47.958;13.158;2023-05-02T09:22:37;15;14;
49914;PMS5003;35806;47.958;13.158;2023-05-02T09:25:05;17;14;
49914;PMS5003;35806;47.958;13.158;2023-05-02T09:27:48;13;11;
49914;PMS5003;35806;47.958;13.158;2023-05-02T09:30:18;13;12;
49914;PMS5003;35806;47.958;13.158;2023-05-02T09:32:47;14;14;
49914;PMS5003;35806;47.958;13.158;2023-05-02T09:35:16;10;10;
49914;PMS5003;35806;47.958;13.158;2023-05-02T09:37:44;15;15;
49914;PMS5003;35806;47.958;13.158;2023-05-02T09:40:11;15;14;
49914;PMS5003;35806;47.958;13.158;2023-05-02T09:42:38;15;12;
49914;PMS5003;35806;47.958;13.158;2023-05-02T09:45:06;14;13;
49914;PMS5003;35806;47.958;13.158;2023-05-02T09:47:34;16;14;
49914;PMS5003;35806;47.958;13.158;2023-05-02T09:50:02;14;14;
49914;PMS5003;35806;47.958;13.158;2023-05-02T09:52:29;16;14;
49914;PMS5003;35806;47.958;13.158;2023-05-02T09:54:57;16;13;
49914;PMS5003;35806;47.958;13.158;2023-05-02T09:57:38;16;16;
49914;PMS5003;35806;47.958;13.158;2023-05-02T10:00:06;16;16;
49914;PMS5003;35806;47.958;13.158;2023-05-02T10:02:34;18;14;
49914;PMS5003;35806;47.958;13.158;2023-05-02T10:05:02;13;13;
49914;PMS5003;35806;47.958;13.158;2023-05-02T10:07:34;16;14;
49914;PMS5003;35806;47.958;13.158;2023-05-02T10:10:02;15;12;
49914;PMS5003;35806;47.958;13.158;2023-05-02T10:12:31;18;15;
49914;PMS5003;35806;47.958;13.158;2023-05-02T10:15:02;14;14;
49914;PMS5003;35806;47.958;13.158;2023-05-02T10:17:30;19;17;
49914;PMS5003;35806;47.958;13.158;2023-05-02T10:20:05;11;11;
49914;PMS5003;35806;47.958;13.158;2023-05-02T10:22:35;16;13;
49914;PMS5003;35806;47.958;13.158;2023-05-02T10:25:04;13;13;
49914;PMS5003;35806;47.958;13.158;2023-05-02T10:27:31;16;14;
49914;PMS5003;35806;47.958;13.158;2023-05-02T10:29:59;14;14;
49914;PMS5003;35806;47.958;13.158;2023-05-02T10:32:26;11;11;
49914;PMS5003;35806;47.958;13.158;2023-05-02T10:34:54;15;15;
49914;PMS5003;35806;47.958;13.158;2023-05-02T10:37:23;18;15;
49914;PMS5003;35806;47.958;13.158;2023-05-02T10:39:51;17;16;
49914;PMS5003;35806;47.958;13.158;2023-05-02T10:42:18;13;12;
49914;PMS5003;35806;47.958;13.158;2023-05-02T10:44:46;17;15;
49914;PMS5003;35806;47.958;13.158;2023-05-02T10:47:18;15;15;
49914;PMS5003;35806;47.958;13.158;2023-05-02T10:49:50;21;20;
49914;PMS5003;35806;47.958;13.158;2023-05-02T10:52:26;14;14;
49914;PMS5003;35806;47.958;13.158;2023-05-02T10:55:27;16;16;
49914;PMS5003;35806;47.958;13.158;2023-05-02T10:58:28;14;13;
49914;PMS5003;35806;47.958;13.158;2023-05-02T11:01:31;15;12;
49914;PMS5003;35806;47.958;13.158;2023-05-02T11:03:58;15;15;
49914;PMS5003;35806;47.958;13.158;2023-05-02T11:06:27;15;14;
49914;PMS5003;35806;47.958;13.158;2023-05-02T11:09:29;16;15;
49914;PMS5003;35806;47.958;13.158;2023-05-02T11:11:57;15;15;
49914;PMS5003;35806;47.958;13.158;2023-05-02T11:14:57;14;14;
49914;PMS5003;35806;47.958;13.158;2023-05-02T11:17:24;18;17;
49914;PMS5003;35806;47.958;13.158;2023-05-02T11:20:23;16;16;
49914;PMS5003;35806;47.958;13.158;2023-05-02T11:22:50;15;15;
49914;PMS5003;35806;47.958;13.158;2023-05-02T11:25:36;17;16;
49914;PMS5003;35806;47.958;13.158;2023-05-02T11:28:05;15;14;
49914;PMS5003;35806;47.958;13.158;2023-05-02T11:30:35;15;14;
49914;PMS5003;35806;47.958;13.158;2023-05-02T11:33:13;18;17;
49914;PMS5003;35806;47.958;13.158;2023-05-02T11:35:42;17;15;
49914;PMS5003;35806;47.958;13.158;2023-05-02T11:38:11;14;13;
49914;PMS5003;35806;47.958;13.158;2023-05-02T11:40:39;18;18;
49914;PMS5003;35806;47.958;13.158;2023-05-02T11:43:15;16;15;
49914;PMS5003;35806;47.958;13.158;2023-05-02T11:45:44;15;15;
49914;PMS5003;35806;47.958;13.158;2023-05-02T11:48:12;16;16;
49914;PMS5003;35806;47.958;13.158;2023-05-02T11:50:43;14;14;
49914;PMS5003;35806;47.958;13.158;2023-05-02T11:53:12;16;16;
49914;PMS5003;35806;47.958;13.158;2023-05-02T11:55:46;19;18;
49914;PMS5003;35806;47.958;13.158;2023-05-02T11:58:14;16;15;
49914;PMS5003;35806;47.958;13.158;2023-05-02T12:00:43;16;15;
49914;PMS5003;35806;47.958;13.158;2023-05-02T12:03:28;18;17;
49914;PMS5003;35806;47.958;13.158;2023-05-02T12:06:08;24;23;
49914;PMS5003;35806;47.958;13.158;2023-05-02T12:08:38;16;16;
49914;PMS5003;35806;47.958;13.158;2023-05-02T12:11:06;15;15;
49914;PMS5003;35806;47.958;13.158;2023-05-02T12:13:32;18;18;
49914;PMS5003;35806;47.958;13.158;2023-05-02T12:16:00;19;19;
49914;PMS5003;35806;47.958;13.158;2023-05-02T12:18:27;14;14;
49914;PMS5003;35806;47.958;13.158;2023-05-02T12:20:55;18;18;
49914;PMS5003;35806;47.958;13.158;2023-05-02T12:23:23;18;17;
49914;PMS5003;35806;47.958;13.158;2023-05-02T12:25:51;16;16;
49914;PMS5003;35806;47.958;13.158;2023-05-02T12:28:19;16;16;
49914;PMS5003;35806;47.958;13.158;2023-05-02T12:30:47;21;21;
49914;PMS5003;35806;47.958;13.158;2023-05-02T12:33:15;17;16;
49914;PMS5003;35806;47.958;13.158;2023-05-02T12:35:44;24;22;
49914;PMS5003;35806;47.958;13.158;2023-05-02T12:38:12;18;17;
49914;PMS5003;35806;47.958;13.158;2023-05-02T12:40:49;27;25;
49914;PMS5003;35806;47.958;13.158;2023-05-02T12:43:19;19;18;
49914;PMS5003;35806;47.958;13.158;2023-05-02T12:45:47;23;21;
49914;PMS5003;35806;47.958;13.158;2023-05-02T12:48:18;22;22;
49914;PMS5003;35806;47.958;13.158;2023-05-02T12:50:48;17;16;
49914;PMS5003;35806;47.958;13.158;2023-05-02T12:53:16;21;19;
49914;PMS5003;35806;47.958;13.158;2023-05-02T12:56:03;20;18;
49914;PMS5003;35806;47.958;13.158;2023-05-02T12:58:37;16;16;
49914;PMS5003;35806;47.958;13.158;2023-05-02T13:01:06;28;23;
49914;PMS5003;35806;47.958;13.158;2023-05-02T13:03:35;20;20;
49914;PMS5003;35806;47.958;13.158;2023-05-02T13:06:02;20;18;
49914;PMS5003;35806;47.958;13.158;2023-05-02T13:08:29;20;19;
49914;PMS5003;35806;47.958;13.158;2023-05-02T13:10:58;17;17;
49914;PMS5003;35806;47.958;13.158;2023-05-02T13:13:25;17;17;
49914;PMS5003;35806;47.958;13.158;2023-05-02T13:15:52;30;24;
49914;PMS5003;35806;47.958;13.158;2023-05-02T13:18:19;17;17;
49914;PMS5003;35806;47.958;13.158;2023-05-02T13:20:47;20;18;
49914;PMS5003;35806;47.958;13.158;2023-05-02T13:23:13;19;19;
49914;PMS5003;35806;47.958;13.158;2023-05-02T13:25:41;25;22;
49914;PMS5003;35806;47.958;13.158;2023-05-02T13:28:08;19;19;
49914;PMS5003;35806;47.958;13.158;2023-05-02T13:30:35;23;23;
49914;PMS5003;35806;47.958;13.158;2023-05-02T13:33:03;18;18;
49914;PMS5003;35806;47.958;13.158;2023-05-02T13:35:30;20;20;
49914;PMS5003;35806;47.958;13.158;2023-05-02T13:37:57;20;18;
49914;PMS5003;35806;47.958;13.158;2023-05-02T13:40:25;22;22;
49914;PMS5003;35806;47.958;13.158;2023-05-02T13:42:57;21;21;
49914;PMS5003;35806;47.958;13.158;2023-05-02T13:45:25;23;21;
49914;PMS5003;35806;47.958;13.158;2023-05-02T13:47:52;22;20;
49914;PMS5003;35806;47.958;13.158;2023-05-02T13:50:19;21;20;
49914;PMS5003;35806;47.958;13.158;2023-05-02T13:52:46;21;21;
49914;PMS5003;35806;47.958;13.158;2023-05-02T13:55:14;19;19;
49914;PMS5003;35806;47.958;13.158;2023-05-02T13:57:40;20;19;
49914;PMS5003;35806;47.958;13.158;2023-05-02T14:00:08;23;22;
49914;PMS5003;35806;47.958;13.158;2023-05-02T14:02:37;20;18;
49914;PMS5003;35806;47.958;13.158;2023-05-02T14:05:04;18;18;
49914;PMS5003;35806;47.958;13.158;2023-05-02T14:07:33;22;20;
49914;PMS5003;35806;47.958;13.158;2023-05-02T14:10:00;25;22;
49914;PMS5003;35806;47.958;13.158;2023-05-02T14:12:27;20;19;
49914;PMS5003;35806;47.958;13.158;2023-05-02T14:14:54;28;25;
49914;PMS5003;35806;47.958;13.158;2023-05-02T14:17:22;18;17;
49914;PMS5003;35806;47.958;13.158;2023-05-02T14:19:49;20;20;
49914;PMS5003;35806;47.958;13.158;2023-05-02T14:22:17;21;19;
49914;PMS5003;35806;47.958;13.158;2023-05-02T14:24:44;19;18;
49914;PMS5003;35806;47.958;13.158;2023-05-02T14:27:12;19;19;
49914;PMS5003;35806;47.958;13.158;2023-05-02T14:29:44;23;22;
49914;PMS5003;35806;47.958;13.158;2023-05-02T14:32:12;20;18;
49914;PMS5003;35806;47.958;13.158;2023-05-02T14:34:39;26;25;
49914;PMS5003;35806;47.958;13.158;2023-05-02T14:37:06;23;22;
49914;PMS5003;35806;47.958;13.158;2023-05-02T14:39:39;21;18;
49914;PMS5003;35806;47.958;13.158;2023-05-02T14:42:06;19;19;
49914;PMS5003;35806;47.958;13.158;2023-05-02T14:44:34;24;24;
49914;PMS5003;35806;47.958;13.158;2023-05-02T14:47:01;21;18;
49914;PMS5003;35806;47.958;13.158;2023-05-02T14:49:28;21;19;
49914;PMS5003;35806;47.958;13.158;2023-05-02T14:51:55;21;19;
49914;PMS5003;35806;47.958;13.158;2023-05-02T14:54:25;20;20;
49914;PMS5003;35806;47.958;13.158;2023-05-02T14:56:52;23;19;
49914;PMS5003;35806;47.958;13.158;2023-05-02T14:59:20;28;26;
49914;PMS5003;35806;47.958;13.158;2023-05-02T15:01:47;26;23;
49914;PMS5003;35806;47.958;13.158;2023-05-02T15:04:19;23;21;
49914;PMS5003;35806;47.958;13.158;2023-05-02T15:06:46;30;23;
49914;PMS5003;35806;47.958;13.158;2023-05-02T15:09:13;26;25;
49914;PMS5003;35806;47.958;13.158;2023-05-02T15:11:40;27;24;
49914;PMS5003;35806;47.958;13.158;2023-05-02T15:14:09;25;23;
49914;PMS5003;35806;47.958;13.158;2023-05-02T15:16:36;33;29;
49914;PMS5003;35806;47.958;13.158;2023-05-02T15:19:03;28;28;
49914;PMS5003;35806;47.958;13.158;2023-05-02T15:21:30;25;24;
49914;PMS5003;35806;47.958;13.158;2023-05-02T15:23:57;24;22;
49914;PMS5003;35806;47.958;13.158;2023-05-02T15:26:25;29;29;
49914;PMS5003;35806;47.958;13.158;2023-05-02T15:28:51;21;21;
49914;PMS5003;35806;47.958;13.158;2023-05-02T15:31:19;26;24;
49914;PMS5003;35806;47.958;13.158;2023-05-02T15:33:46;26;25;
49914;PMS5003;35806;47.958;13.158;2023-05-02T15:36:14;24;22;
49914;PMS5003;35806;47.958;13.158;2023-05-02T15:38:41;23;20;
49914;PMS5003;35806;47.958;13.158;2023-05-02T15:41:09;27;26;
49914;PMS5003;35806;47.958;13.158;2023-05-02T15:43:36;18;18;
49914;PMS5003;35806;47.958;13.158;2023-05-02T15:46:03;22;20;
49914;PMS5003;35806;47.958;13.158;2023-05-02T15:48:30;18;18;
49914;PMS5003;35806;47.958;13.158;2023-05-02T15:50:58;19;19;
49914;PMS5003;35806;47.958;13.158;2023-05-02T15:53:26;19;17;
49914;PMS5003;35806;47.958;13.158;2023-05-02T15:55:53;16;16;
49914;PMS5003;35806;47.958;13.158;2023-05-02T15:58:20;21;21;
49914;PMS5003;35806;47.958;13.158;2023-05-02T16:00:48;19;17;
49914;PMS5003;35806;47.958;13.158;2023-05-02T16:03:18;13;13;
49914;PMS5003;35806;47.958;13.158;2023-05-02T16:05:45;16;13;
49914;PMS5003;35806;47.958;13.158;2023-05-02T16:08:12;12;12;
49914;PMS5003;35806;47.958;13.158;2023-05-02T16:10:39;12;12;
49914;PMS5003;35806;47.958;13.158;2023-05-02T16:13:06;17;16;
49914;PMS5003;35806;47.958;13.158;2023-05-02T16:15:34;13;12;
49914;PMS5003;35806;47.958;13.158;2023-05-02T16:18:01;13;13;
49914;PMS5003;35806;47.958;13.158;2023-05-02T16:20:29;13;13;
49914;PMS5003;35806;47.958;13.158;2023-05-02T16:22:56;12;12;
49914;PMS5003;35806;47.958;13.158;2023-05-02T16:25:24;15;11;
49914;PMS5003;35806;47.958;13.158;2023-05-02T16:27:51;10;10;
49914;PMS5003;35806;47.958;13.158;2023-05-02T16:30:18;16;11;
49914;PMS5003;35806;47.958;13.158;2023-05-02T16:32:46;12;12;
49914;PMS5003;35806;47.958;13.158;2023-05-02T16:35:14;10;10;
49914;PMS5003;35806;47.958;13.158;2023-05-02T16:37:41;12;12;
49914;PMS5003;35806;47.958;13.158;2023-05-02T16:40:09;12;10;
49914;PMS5003;35806;47.958;13.158;2023-05-02T16:42:37;12;10;
49914;PMS5003;35806;47.958;13.158;2023-05-02T16:45:05;8;8;
49914;PMS5003;35806;47.958;13.158;2023-05-02T16:47:32;8;8;
49914;PMS5003;35806;47.958;13.158;2023-05-02T16:50:00;12;11;
49914;PMS5003;35806;47.958;13.158;2023-05-02T16:52:27;12;9;
49914;PMS5003;35806;47.958;13.158;2023-05-02T16:54:55;10;8;
49914;PMS5003;35806;47.958;13.158;2023-05-02T16:57:23;7;7;
49914;PMS5003;35806;47.958;13.158;2023-05-02T16:59:51;8;8;
49914;PMS5003;35806;47.958;13.158;2023-05-02T17:02:18;9;8;
49914;PMS5003;35806;47.958;13.158;2023-05-02T17:04:45;7;7;
49914;PMS5003;35806;47.958;13.158;2023-05-02T17:07:13;9;7;
49914;PMS5003;35806;47.958;13.158;2023-05-02T17:09:40;8;8;
49914;PMS5003;35806;47.958;13.158;2023-05-02T17:12:08;9;8;
49914;PMS5003;35806;47.958;13.158;2023-05-02T17:14:36;9;8;
49914;PMS5003;35806;47.958;13.158;2023-05-02T17:17:05;7;7;
49914;PMS5003;35806;47.958;13.158;2023-05-02T17:19:32;9;9;
49914;PMS5003;35806;47.958;13.158;2023-05-02T17:22:00;10;9;
49914;PMS5003;35806;47.958;13.158;2023-05-02T17:24:28;7;6;
49914;PMS5003;35806;47.958;13.158;2023-05-02T17:26:56;7;7;
49914;PMS5003;35806;47.958;13.158;2023-05-02T17:29:23;9;9;
49914;PMS5003;35806;47.958;13.158;2023-05-02T17:31:51;7;7;
49914;PMS5003;35806;47.958;13.158;2023-05-02T17:34:18;9;8;
49914;PMS5003;35806;47.958;13.158;2023-05-02T17:36:46;10;8;
49914;PMS5003;35806;47.958;13.158;2023-05-02T17:39:13;9;9;
49914;PMS5003;35806;47.958;13.158;2023-05-02T17:41:45;11;8;
49914;PMS5003;35806;47.958;13.158;2023-05-02T17:44:12;8;7;
49914;PMS5003;35806;47.958;13.158;2023-05-02T17:46:39;10;8;
49914;PMS5003;35806;47.958;13.158;2023-05-02T17:49:07;10;9;
49914;PMS5003;35806;47.958;13.158;2023-05-02T17:51:35;8;8;
49914;PMS5003;35806;47.958;13.158;2023-05-02T17:54:02;7;7;
49914;PMS5003;35806;47.958;13.158;2023-05-02T17:56:30;8;8;
49914;PMS5003;35806;47.958;13.158;2023-05-02T17:58:57;7;7;
49914;PMS5003;35806;47.958;13.158;2023-05-02T18:01:25;8;7;
49914;PMS5003;35806;47.958;13.158;2023-05-02T18:03:52;8;8;
49914;PMS5003;35806;47.958;13.158;2023-05-02T18:06:19;8;8;
49914;PMS5003;35806;47.958;13.158;2023-05-02T18:08:46;7;7;
49914;PMS5003;35806;47.958;13.158;2023-05-02T18:11:14;8;8;
49914;PMS5003;35806;47.958;13.158;2023-05-02T18:13:42;9;9;
49914;PMS5003;35806;47.958;13.158;2023-05-02T18:16:09;10;8;
49914;PMS5003;35806;47.958;13.158;2023-05-02T18:18:37;11;8;
49914;PMS5003;35806;47.958;13.158;2023-05-02T18:21:04;11;11;
49914;PMS5003;35806;47.958;13.158;2023-05-02T18:23:32;11;11;
49914;PMS5003;35806;47.958;13.158;2023-05-02T18:25:59;11;11;
49914;PMS5003;35806;47.958;13.158;2023-05-02T18:28:32;12;12;
49914;PMS5003;35806;47.958;13.158;2023-05-02T18:30:59;9;9;
49914;PMS5003;35806;47.958;13.158;2023-05-02T18:33:26;10;9;
49914;PMS5003;35806;47.958;13.158;2023-05-02T18:35:54;11;11;
49914;PMS5003;35806;47.958;13.158;2023-05-02T18:38:21;13;13;
49914;PMS5003;35806;47.958;13.158;2023-05-02T18:40:49;13;12;
49914;PMS5003;35806;47.958;13.158;2023-05-02T18:43:21;13;12;
49914;PMS5003;35806;47.958;13.158;2023-05-02T18:45:48;9;9;
49914;PMS5003;35806;47.958;13.158;2023-05-02T18:48:16;12;10;
49914;PMS5003;35806;47.958;13.158;2023-05-02T18:50:43;15;14;
49914;PMS5003;35806;47.958;13.158;2023-05-02T18:53:11;9;9;
49914;PMS5003;35806;47.958;13.158;2023-05-02T18:55:38;10;10;
49914;PMS5003;35806;47.958;13.158;2023-05-02T18:58:06;10;10;
49914;PMS5003;35806;47.958;13.158;2023-05-02T19:00:32;11;11;
49914;PMS5003;35806;47.958;13.158;2023-05-02T19:03:00;13;11;
49914;PMS5003;35806;47.958;13.158;2023-05-02T19:05:28;10;10;
49914;PMS5003;35806;47.958;13.158;2023-05-02T19:07:55;11;10;
49914;PMS5003;35806;47.958;13.158;2023-05-02T19:10:23;11;10;
49914;PMS5003;35806;47.958;13.158;2023-05-02T19:12:50;7;7;
49914;PMS5003;35806;47.958;13.158;2023-05-02T19:15:18;9;8;
49914;PMS5003;35806;47.958;13.158;2023-05-02T19:17:45;12;11;
49914;PMS5003;35806;47.958;13.158;2023-05-02T19:20:15;12;12;
49914;PMS5003;35806;47.958;13.158;2023-05-02T19:22:42;12;12;
49914;PMS5003;35806;47.958;13.158;2023-05-02T19:25:10;11;10;
49914;PMS5003;35806;47.958;13.158;2023-05-02T19:27:37;14;11;
49914;PMS5003;35806;47.958;13.158;2023-05-02T19:30:05;7;7;
49914;PMS5003;35806;47.958;13.158;2023-05-02T19:32:33;9;9;
49914;PMS5003;35806;47.958;13.158;2023-05-02T19:35:01;10;10;
49914;PMS5003;35806;47.958;13.158;2023-05-02T19:37:28;11;9;
49914;PMS5003;35806;47.958;13.158;2023-05-02T19:39:56;9;9;
49914;PMS5003;35806;47.958;13.158;2023-05-02T19:42:24;10;9;
49914;PMS5003;35806;47.958;13.158;2023-05-02T19:44:51;12;12;
49914;PMS5003;35806;47.958;13.158;2023-05-02T19:47:18;10;10;
49914;PMS5003;35806;47.958;13.158;2023-05-02T19:49:46;14;14;
49914;PMS5003;35806;47.958;13.158;2023-05-02T19:52:15;12;12;
49914;PMS5003;35806;47.958;13.158;2023-05-02T19:54:43;12;11;
49914;PMS5003;35806;47.958;13.158;2023-05-02T19:57:10;15;15;
49914;PMS5003;35806;47.958;13.158;2023-05-02T19:59:37;8;8;
49914;PMS5003;35806;47.958;13.158;2023-05-02T20:02:05;10;10;
49914;PMS5003;35806;47.958;13.158;2023-05-02T20:04:32;12;11;
49914;PMS5003;35806;47.958;13.158;2023-05-02T20:07:00;13;12;
49914;PMS5003;35806;47.958;13.158;2023-05-02T20:09:27;11;11;
49914;PMS5003;35806;47.958;13.158;2023-05-02T20:11:54;15;13;
49914;PMS5003;35806;47.958;13.158;2023-05-02T20:14:22;12;10;
49914;PMS5003;35806;47.958;13.158;2023-05-02T20:16:50;13;11;
49914;PMS5003;35806;47.958;13.158;2023-05-02T20:19:18;15;13;
49914;PMS5003;35806;47.958;13.158;2023-05-02T20:21:46;13;13;
49914;PMS5003;35806;47.958;13.158;2023-05-02T20:24:13;13;13;
49914;PMS5003;35806;47.958;13.158;2023-05-02T20:26:41;14;14;
49914;PMS5003;35806;47.958;13.158;2023-05-02T20:29:08;16;13;
49914;PMS5003;35806;47.958;13.158;2023-05-02T20:31:36;15;15;
49914;PMS5003;35806;47.958;13.158;2023-05-02T20:34:03;12;12;
49914;PMS5003;35806;47.958;13.158;2023-05-02T20:36:31;12;12;
49914;PMS5003;35806;47.958;13.158;2023-05-02T20:38:58;17;15;
49914;PMS5003;35806;47.958;13.158;2023-05-02T20:41:26;14;14;
49914;PMS5003;35806;47.958;13.158;2023-05-02T20:43:53;14;14;
49914;PMS5003;35806;47.958;13.158;2023-05-02T20:46:20;15;15;
49914;PMS5003;35806;47.958;13.158;2023-05-02T20:48:48;14;14;
49914;PMS5003;35806;47.958;13.158;2023-05-02T20:51:15;16;14;
49914;PMS5003;35806;47.958;13.158;2023-05-02T20:53:42;15;15;
49914;PMS5003;35806;47.958;13.158;2023-05-02T20:56:10;15;15;
49914;PMS5003;35806;47.958;13.158;2023-05-02T20:58:37;19;17;
49914;PMS5003;35806;47.958;13.158;2023-05-02T21:01:05;14;14;
49914;PMS5003;35806;47.958;13.158;2023-05-02T21:03:32;18;18;
49914;PMS5003;35806;47.958;13.158;2023-05-02T21:06:00;14;13;
49914;PMS5003;35806;47.958;13.158;2023-05-02T21:08:27;16;14;
49914;PMS5003;35806;47.958;13.158;2023-05-02T21:10:54;13;13;
49914;PMS5003;35806;47.958;13.158;2023-05-02T21:13:21;21;21;
49914;PMS5003;35806;47.958;13.158;2023-05-02T21:15:49;16;15;
49914;PMS5003;35806;47.958;13.158;2023-05-02T21:18:17;16;16;
49914;PMS5003;35806;47.958;13.158;2023-05-02T21:20:45;14;14;
49914;PMS5003;35806;47.958;13.158;2023-05-02T21:23:13;16;16;
49914;PMS5003;35806;47.958;13.158;2023-05-02T21:25:40;16;14;
49914;PMS5003;35806;47.958;13.158;2023-05-02T21:28:07;16;16;
49914;PMS5003;35806;47.958;13.158;2023-05-02T21:30:34;15;15;
49914;PMS5003;35806;47.958;13.158;2023-05-02T21:33:02;17;16;
49914;PMS5003;35806;47.958;13.158;2023-05-02T21:35:29;15;14;
49914;PMS5003;35806;47.958;13.158;2023-05-02T21:37:56;17;17;
49914;PMS5003;35806;47.958;13.158;2023-05-02T21:40:28;16;16;
49914;PMS5003;35806;47.958;13.158;2023-05-02T21:42:55;17;16;
49914;PMS5003;35806;47.958;13.158;2023-05-02T21:45:22;17;16;
49914;PMS5003;35806;47.958;13.158;2023-05-02T21:47:50;18;16;
49914;PMS5003;35806;47.958;13.158;2023-05-02T21:50:17;20;16;
49914;PMS5003;35806;47.958;13.158;2023-05-02T21:52:45;21;19;
49914;PMS5003;35806;47.958;13.158;2023-05-02T21:55:12;19;18;
49914;PMS5003;35806;47.958;13.158;2023-05-02T21:57:39;23;23;
49914;PMS5003;35806;47.958;13.158;2023-05-02T22:00:09;19;19;
49914;PMS5003;35806;47.958;13.158;2023-05-02T22:02:37;24;24;
49914;PMS5003;35806;47.958;13.158;2023-05-02T22:05:05;20;19;
49914;PMS5003;35806;47.958;13.158;2023-05-02T22:07:32;24;18;
49914;PMS5003;35806;47.958;13.158;2023-05-02T22:09:59;19;19;
49914;PMS5003;35806;47.958;13.158;2023-05-02T22:12:27;19;19;
49914;PMS5003;35806;47.958;13.158;2023-05-02T22:14:54;27;25;
49914;PMS5003;35806;47.958;13.158;2023-05-02T22:17:21;19;19;
49914;PMS5003;35806;47.958;13.158;2023-05-02T22:19:48;21;20;
49914;PMS5003;35806;47.958;13.158;2023-05-02T22:22:16;23;23;
49914;PMS5003;35806;47.958;13.158;2023-05-02T22:24:44;24;23;
49914;PMS5003;35806;47.958;13.158;2023-05-02T22:27:11;21;21;
49914;PMS5003;35806;47.958;13.158;2023-05-02T22:29:38;19;19;
49914;PMS5003;35806;47.958;13.158;2023-05-02T22:32:06;21;21;
49914;PMS5003;35806;47.958;13.158;2023-05-02T22:34:33;20;19;
49914;PMS5003;35806;47.958;13.158;2023-05-02T22:37:00;23;22;
49914;PMS5003;35806;47.958;13.158;2023-05-02T22:39:28;25;22;
49914;PMS5003;35806;47.958;13.158;2023-05-02T22:41:55;21;19;
49914;PMS5003;35806;47.958;13.158;2023-05-02T22:44:22;24;23;
49914;PMS5003;35806;47.958;13.158;2023-05-02T22:46:49;27;26;
49914;PMS5003;35806;47.958;13.158;2023-05-02T22:49:17;23;21;
49914;PMS5003;35806;47.958;13.158;2023-05-02T22:51:45;24;22;
49914;PMS5003;35806;47.958;13.158;2023-05-02T22:54:12;21;19;
49914;PMS5003;35806;47.958;13.158;2023-05-02T22:56:40;24;24;
49914;PMS5003;35806;47.958;13.158;2023-05-02T22:59:08;25;24;
49914;PMS5003;35806;47.958;13.158;2023-05-02T23:01:40;24;20;
49914;PMS5003;35806;47.958;13.158;2023-05-02T23:04:07;24;24;
49914;PMS5003;35806;47.958;13.158;2023-05-02T23:06:35;25;25;
49914;PMS5003;35806;47.958;13.158;2023-05-02T23:09:01;23;23;
49914;PMS5003;35806;47.958;13.158;2023-05-02T23:11:29;25;25;
49914;PMS5003;35806;47.958;13.158;2023-05-02T23:13:56;20;18;
49914;PMS5003;35806;47.958;13.158;2023-05-02T23:16:24;19;19;
49914;PMS5003;35806;47.958;13.158;2023-05-02T23:18:51;20;20;
49914;PMS5003;35806;47.958;13.158;2023-05-02T23:21:19;24;22;
49914;PMS5003;35806;47.958;13.158;2023-05-02T23:23:46;19;19;
49914;PMS5003;35806;47.958;13.158;2023-05-02T23:26:13;29;24;
49914;PMS5003;35806;47.958;13.158;2023-05-02T23:28:40;24;22;
49914;PMS5003;35806;47.958;13.158;2023-05-02T23:31:07;25;25;
49914;PMS5003;35806;47.958;13.158;2023-05-02T23:33:34;24;20;
49914;PMS5003;35806;47.958;13.158;2023-05-02T23:36:01;24;21;
49914;PMS5003;35806;47.958;13.158;2023-05-02T23:38:29;20;19;
49914;PMS5003;35806;47.958;13.158;2023-05-02T23:40:57;21;19;
49914;PMS5003;35806;47.958;13.158;2023-05-02T23:43:25;19;19;
49914;PMS5003;35806;47.958;13.158;2023-05-02T23:45:52;18;17;
49914;PMS5003;35806;47.958;13.158;2023-05-02T23:48:19;22;19;
49914;PMS5003;35806;47.958;13.158;2023-05-02T23:50:47;19;18;
49914;PMS5003;35806;47.958;13.158;2023-05-02T23:53:14;19;17;
49914;PMS5003;35806;47.958;13.158;2023-05-02T23:55:41;16;16;
49914;PMS5003;35806;47.958;13.158;2023-05-02T23:58:08;18;17;
